GMADGMMX

Guest
Details From GMAD - Agadir AL MASSIRA
To GMMX - MENARA
Flight Number -
Tags generated
Created
Modified
Stats Distance 105 nm / 194 km
Max Altitude 11,500 ft / 3,505 m
Waypoints 4
Social Downloads 3
Likes 0
Share VATSIM

Download

Looking for another format? Having issues loading an existing format? Contact us
Advertisement - Login to hide

Notes

Basic altitude profile: - Ascent Rate: 2500ft/min - Ascent Speed: 250kts - Cruise Altitude: 35000ft - Cruise Speed: 420kts - Descent Rate: 1500ft/min - Descent Speed: 250kts Options: - Use NATs: yes - Use PACOTS: yes - Use low airways: yes - Use high airways: yes

Route

GMAD OLOMA G850 BIDLA GMMX

ID Type Via Altitude Latitude Longitude Leg Dist Tot Dist Heading (true) Name
O GMAD APT - 0 ft / 0 m 30.32262˚ -9.41153˚ - 0 nm - Agadir AL MASSIRA
OLOMA FIX - 9,200 ft / 2,804 m 30.64083˚ -9.07167˚ 25 nm 25 nm 43° / 43° -
BIDLA FIX G850 (AWY-LO) 11,500 ft / 3,505 m 30.89556˚ -8.82278˚ 19 nm 45 nm 40° / 40° -
O GMMX APT - 0 ft / 0 m 31.60692˚ -8.03627˚ 58 nm 104 nm 43° / 44° MENARA

Altitude Profile

Advertisement - Login to hide

GMAD

Details ICAO GMAD
Name Agadir AL MASSIRA
Region Morocco
Timezone Africa/Casablanca (UTC+0.0)
Stats Elevation 250 ft / 76 m (AMSL)
Location 30.322623° -9.411528°
Runways 1
Magnetic Variation 2.481° W

METAR

GMAD 181500Z 27014KT CAVOK 21/09 Q1022 NOSIG

Decode

TAF

TAF GMAD 181100Z 1812/1918 26008KT CAVOK TEMPO 1819/1908 2000 BR BKN006

Decode

Departure Runways

ID Width Length Bearing (true) Bearing (mag) Surface Threshold Offset Overrun Length
10 148 ft / 45 m 10,509 ft / 3,203 m 91.58° 94.06° Asphalt 0 ft / 0 m 0 ft / 0 m
28 148 ft / 45 m 10,509 ft / 3,203 m 271.60° 274.08° Asphalt 0 ft / 0 m 0 ft / 0 m

GMMX

Details ICAO GMMX (RAK)
Name MENARA
Region Morocco
Timezone Africa/Casablanca (UTC+0.0)
Stats Elevation 1,545 ft / 471 m (AMSL)
Location 31.606920° -8.036265°
Runways 1
Magnetic Variation 1.998° W

METAR

GMMX 181500Z VRB01KT 9999 FEW020 19/04 Q1023 NOSIG

Decode

TAF

TAF GMMX 181100Z 1812/1918 02006KT 8000 NSC

Decode

Destination Runways

ID Width Length Bearing (true) Bearing (mag) Surface Threshold Offset Overrun Length
10 148 ft / 45 m 10,169 ft / 3,100 m 95.99° 97.99° Asphalt 918 ft / 280 m 0 ft / 0 m
28 148 ft / 45 m 10,169 ft / 3,100 m 276.00° 278.00° Asphalt 0 ft / 0 m 0 ft / 0 m

Approach Navaids

Runway Type Ident Frequency Range Bearing (true) Bearing (mag) Slope Elevation
10 Localiser MAR 109.70 MHz 18 nm / 33 km 96.03° 98.02° - 1,545 ft / 471 m (AMSL)
10 Glidescope MAR 109.70 MHz 10 nm / 19 km 96.00° 97.99° 3.00° 1,558 ft / 475 m (AMSL)

Popular Alternatives